createdAt,value
2019-03-20T00:00:42.283Z,25.73
2019-03-20T00:03:11.849Z,32.97
2019-03-20T00:05:41.272Z,35.50
2019-03-20T00:08:10.743Z,35.93
2019-03-20T00:10:40.165Z,26.10
2019-03-20T00:13:09.770Z,28.93
2019-03-20T00:15:39.213Z,28.30
2019-03-20T00:18:08.784Z,22.93
2019-03-20T00:20:38.288Z,36.80
2019-03-20T00:23:07.909Z,37.70
2019-03-20T00:25:37.744Z,25.10
2019-03-20T00:28:07.119Z,38.13
2019-03-20T00:30:36.584Z,33.13
2019-03-20T00:33:06.032Z,19.73
2019-03-20T00:35:35.495Z,30.40
2019-03-20T00:38:04.992Z,22.23
2019-03-20T00:40:34.429Z,54.60
2019-03-20T00:43:03.931Z,29.50
2019-03-20T00:45:33.370Z,30.30
2019-03-20T00:48:02.754Z,52.93
2019-03-20T00:50:32.238Z,30.43
2019-03-20T00:53:01.732Z,33.30
2019-03-20T00:55:31.136Z,27.90
2019-03-20T00:58:00.760Z,39.03
2019-03-20T01:00:30.183Z,36.07
2019-03-20T01:02:59.727Z,29.03
2019-03-20T01:05:29.283Z,45.70
2019-03-20T01:07:58.871Z,36.63
2019-03-20T01:10:28.356Z,24.00
2019-03-20T01:12:57.789Z,32.13
2019-03-20T01:15:27.396Z,29.33
2019-03-20T01:17:56.998Z,26.83
2019-03-20T01:20:26.721Z,25.57
2019-03-20T01:22:56.281Z,33.23
2019-03-20T01:25:25.823Z,38.00
2019-03-20T01:27:55.507Z,33.07
2019-03-20T01:30:33.353Z,43.47
2019-03-20T01:33:04.033Z,40.70
2019-03-20T01:35:33.426Z,51.20
2019-03-20T01:38:02.832Z,45.80
2019-03-20T01:40:32.302Z,32.70
2019-03-20T01:43:01.963Z,66.10
2019-03-20T01:45:31.584Z,41.30
2019-03-20T01:48:01.163Z,39.60
2019-03-20T01:50:30.611Z,50.83
2019-03-20T01:53:00.311Z,35.03
2019-03-20T01:55:29.769Z,37.17
2019-03-20T01:57:59.475Z,56.57
2019-03-20T02:00:29.147Z,30.27
2019-03-20T02:02:58.605Z,57.70
2019-03-20T02:05:35.977Z,45.90
2019-03-20T02:07:59.374Z,40.63
2019-03-20T02:10:28.740Z,33.87
2019-03-20T02:12:58.899Z,31.23
2019-03-20T02:15:38.140Z,32.53
2019-03-20T02:17:59.830Z,36.57
2019-03-20T02:20:29.328Z,32.20
2019-03-20T02:22:58.843Z,42.60
2019-03-20T02:25:28.243Z,31.27
2019-03-20T02:27:57.691Z,31.17
2019-03-20T02:30:27.325Z,63.60
2019-03-20T02:32:56.761Z,34.93
2019-03-20T02:35:26.130Z,21.10
2019-03-20T02:37:55.685Z,39.63
2019-03-20T02:40:25.101Z,69.63
2019-03-20T02:42:54.513Z,40.40
2019-03-20T02:45:23.880Z,52.37
2019-03-20T02:47:53.237Z,70.37
2019-03-20T02:50:22.754Z,26.23
2019-03-20T02:52:52.204Z,49.80
2019-03-20T02:55:21.623Z,31.27
2019-03-20T02:57:51.131Z,39.23
2019-03-20T03:00:20.723Z,40.37
2019-03-20T03:02:50.259Z,40.90
2019-03-20T03:05:20.097Z,51.10
2019-03-20T03:07:49.613Z,60.13
2019-03-20T03:10:19.377Z,40.13
2019-03-20T03:12:48.779Z,56.40
2019-03-20T03:15:18.264Z,43.13
2019-03-20T03:17:47.661Z,68.90
2019-03-20T03:20:17.105Z,34.30
2019-03-20T03:22:46.606Z,41.93
2019-03-20T03:25:16.214Z,30.50
2019-03-20T03:27:45.763Z,57.23
2019-03-20T03:30:15.235Z,58.07
2019-03-20T03:32:44.786Z,24.93
2019-03-20T03:35:18.013Z,34.53
2019-03-20T03:37:45.707Z,48.60
2019-03-20T03:40:15.415Z,50.53
2019-03-20T03:42:45.122Z,40.73
2019-03-20T03:45:14.638Z,44.63
2019-03-20T03:47:44.124Z,42.57
2019-03-20T03:50:13.952Z,29.70
2019-03-20T03:52:43.424Z,39.40
2019-03-20T03:55:12.930Z,33.20
2019-03-20T03:57:42.289Z,58.20
2019-03-20T04:00:13.441Z,67.53
2019-03-20T04:02:43.108Z,42.70
2019-03-20T04:05:12.646Z,64.30
2019-03-20T04:07:42.125Z,38.53
2019-03-20T04:10:12.239Z,42.10
2019-03-20T04:12:43.699Z,30.87
2019-03-20T04:15:14.052Z,43.33
2019-03-20T04:17:43.624Z,46.53
2019-03-20T04:20:13.723Z,44.20
2019-03-20T04:22:43.084Z,65.60
2019-03-20T04:25:12.913Z,45.93
2019-03-20T04:27:42.284Z,46.70
2019-03-20T04:30:18.349Z,43.60
2019-03-20T04:32:48.081Z,49.27
2019-03-20T04:35:17.622Z,57.40
2019-03-20T04:37:47.276Z,46.60
2019-03-20T04:40:16.903Z,55.90
2019-03-20T04:42:46.296Z,40.23
2019-03-20T04:45:15.948Z,32.33
2019-03-20T04:47:45.517Z,36.50
2019-03-20T04:50:14.954Z,39.23
2019-03-20T04:52:44.465Z,37.37
2019-03-20T04:55:14.074Z,46.73
2019-03-20T04:57:45.583Z,38.80
2019-03-20T05:00:15.644Z,38.87
2019-03-20T05:02:45.189Z,46.57
2019-03-20T05:05:14.663Z,46.27
2019-03-20T05:07:44.250Z,41.23
2019-03-20T05:10:14.000Z,52.47
2019-03-20T05:12:43.455Z,50.13
2019-03-20T05:15:12.960Z,36.20
2019-03-20T05:17:42.507Z,29.90
2019-03-20T05:20:12.863Z,33.33
2019-03-20T05:22:42.349Z,42.97
2019-03-20T05:25:11.940Z,60.80
2019-03-20T05:27:41.486Z,42.30
2019-03-20T05:30:12.330Z,51.27
2019-03-20T05:32:42.069Z,36.30
2019-03-20T05:35:11.649Z,49.83
2019-03-20T05:37:41.219Z,49.00
2019-03-20T05:40:11.892Z,44.67
2019-03-20T05:42:41.485Z,40.50
2019-03-20T05:45:13.067Z,40.37
2019-03-20T05:47:42.628Z,41.30
2019-03-20T05:50:13.003Z,35.30
2019-03-20T05:52:42.578Z,63.87
2019-03-20T05:55:12.190Z,42.27
2019-03-20T05:57:41.837Z,64.40
2019-03-20T06:00:13.401Z,60.20
2019-03-20T06:02:43.017Z,33.27
2019-03-20T06:05:12.664Z,42.30
2019-03-20T06:07:42.188Z,47.93
2019-03-20T06:10:12.967Z,32.00
2019-03-20T06:12:43.102Z,48.03
2019-03-20T06:15:12.617Z,38.63
2019-03-20T06:17:42.148Z,36.77
2019-03-20T06:20:11.583Z,32.77
2019-03-20T06:22:41.071Z,58.27
2019-03-20T06:25:10.604Z,30.73
2019-03-20T06:27:40.173Z,40.53
2019-03-20T06:30:12.516Z,57.20
2019-03-20T06:32:41.987Z,38.83
2019-03-20T06:35:11.519Z,33.07
2019-03-20T06:37:41.068Z,47.57
2019-03-20T06:40:11.009Z,48.27
2019-03-20T06:42:40.527Z,28.93
2019-03-20T06:45:10.810Z,40.80
2019-03-20T06:47:40.249Z,31.63
2019-03-20T06:50:12.476Z,36.70
2019-03-20T06:52:41.986Z,31.27
2019-03-20T06:55:11.598Z,20.33
2019-03-20T06:57:41.101Z,29.23
2019-03-20T07:00:48.058Z,42.47
2019-03-20T07:03:24.940Z,23.57
2019-03-20T07:06:12.070Z,38.07
2019-03-20T07:09:05.774Z,28.50
2019-03-20T07:11:39.200Z,38.10
2019-03-20T07:14:08.806Z,45.77
2019-03-20T07:16:38.206Z,19.70
2019-03-20T07:19:07.732Z,41.60
2019-03-20T07:21:37.194Z,23.93
2019-03-20T07:24:06.702Z,26.90
2019-03-20T07:26:36.258Z,21.60
2019-03-20T07:29:05.914Z,35.33
2019-03-20T07:31:35.407Z,28.77
2019-03-20T07:34:04.935Z,39.17
2019-03-20T07:36:34.628Z,28.20
2019-03-20T07:39:06.122Z,24.03
2019-03-20T07:41:35.663Z,16.10
2019-03-20T07:44:05.224Z,26.97
2019-03-20T07:46:34.703Z,42.97
2019-03-20T07:49:04.270Z,23.33
2019-03-20T07:51:33.785Z,51.13
2019-03-20T07:54:03.291Z,18.37
2019-03-20T07:56:32.732Z,25.60
2019-03-20T07:59:02.275Z,20.27
2019-03-20T08:01:31.762Z,16.33
2019-03-20T08:04:01.245Z,18.47
2019-03-20T08:06:30.763Z,19.43
2019-03-20T08:09:00.345Z,34.77
2019-03-20T08:11:29.914Z,12.87
2019-03-20T08:13:59.341Z,28.13
2019-03-20T08:16:28.769Z,22.40
2019-03-20T08:18:58.168Z,17.70
2019-03-20T08:21:27.689Z,26.10
2019-03-20T08:23:57.244Z,17.17
2019-03-20T08:26:26.780Z,18.77
2019-03-20T08:28:56.200Z,20.30
2019-03-20T08:31:25.707Z,35.03
2019-03-20T08:33:55.309Z,21.77
2019-03-20T08:36:24.694Z,36.10
2019-03-20T08:38:54.209Z,20.57
2019-03-20T08:41:23.597Z,23.13
2019-03-20T08:43:53.093Z,34.57
2019-03-20T08:46:22.503Z,20.53
2019-03-20T08:48:51.927Z,37.43
2019-03-20T08:51:21.527Z,19.13
2019-03-20T08:53:51.187Z,25.40
2019-03-20T08:56:20.738Z,21.93
2019-03-20T08:58:50.211Z,16.30
2019-03-20T09:01:28.086Z,20.77
2019-03-20T09:03:51.024Z,20.47
2019-03-20T09:06:20.451Z,40.00
2019-03-20T09:08:50.016Z,25.37
2019-03-20T09:11:19.416Z,13.90
2019-03-20T09:13:48.899Z,17.90
2019-03-20T09:16:18.384Z,27.30
2019-03-20T09:18:47.849Z,31.57
2019-03-20T09:21:17.288Z,21.77
2019-03-20T09:23:46.771Z,17.27
2019-03-20T09:26:16.305Z,13.83
2019-03-20T09:28:45.865Z,23.07
2019-03-20T09:31:15.368Z,25.50
2019-03-20T09:33:44.856Z,15.13
2019-03-20T09:36:14.288Z,22.00
2019-03-20T09:38:44.037Z,17.70
2019-03-20T09:41:13.537Z,29.93
2019-03-20T09:43:43.058Z,19.97
2019-03-20T09:46:12.545Z,18.17
2019-03-20T09:48:41.968Z,23.07
2019-03-20T09:51:11.434Z,36.83
2019-03-20T09:53:41.051Z,27.70
2019-03-20T09:56:10.611Z,32.37
2019-03-20T09:58:40.022Z,23.73
2019-03-20T10:01:09.514Z,31.33
2019-03-20T10:03:39.683Z,22.10
2019-03-20T10:06:09.091Z,20.83
2019-03-20T10:08:38.687Z,24.67
2019-03-20T10:11:08.094Z,22.00
2019-03-20T10:13:37.696Z,40.33
2019-03-20T10:16:07.162Z,33.83
2019-03-20T10:18:36.683Z,23.10
2019-03-20T10:21:06.142Z,17.50
2019-03-20T10:23:37.592Z,32.10
2019-03-20T10:26:07.022Z,29.33
2019-03-20T10:28:36.602Z,18.90
2019-03-20T10:31:06.159Z,21.80
2019-03-20T10:33:35.768Z,29.33
2019-03-20T10:36:05.497Z,31.53
2019-03-20T10:38:34.988Z,24.47
2019-03-20T10:41:04.426Z,24.00
2019-03-20T10:43:33.983Z,48.20
2019-03-20T10:46:03.508Z,22.53
2019-03-20T10:48:33.088Z,19.47
2019-03-20T10:51:02.680Z,12.57
2019-03-20T10:53:32.147Z,20.10
2019-03-20T10:56:01.649Z,24.43
2019-03-20T10:58:31.198Z,17.43
2019-03-20T11:01:00.912Z,12.33
2019-03-20T11:03:30.359Z,14.27
2019-03-20T11:05:59.818Z,13.70
2019-03-20T11:08:29.239Z,24.00
2019-03-20T11:10:58.763Z,7.40
2019-03-20T11:13:28.275Z,10.00
2019-03-20T11:15:57.727Z,9.23
2019-03-20T11:18:27.189Z,9.30
2019-03-20T11:20:56.605Z,10.60
2019-03-20T11:23:26.348Z,12.80
2019-03-20T11:25:55.848Z,25.73
2019-03-20T11:28:25.318Z,9.33
2019-03-20T11:30:54.807Z,32.47
2019-03-20T11:33:24.341Z,7.17
2019-03-20T11:35:53.792Z,11.60
2019-03-20T11:38:23.310Z,14.20
2019-03-20T11:40:52.864Z,8.73
2019-03-20T11:43:22.420Z,14.67
2019-03-20T11:45:51.892Z,7.37
2019-03-20T11:48:21.348Z,6.07
2019-03-20T11:50:50.813Z,10.37
2019-03-20T11:53:20.232Z,9.30
2019-03-20T11:55:49.669Z,23.13
2019-03-20T11:58:19.263Z,6.93
2019-03-20T12:00:48.809Z,9.93
2019-03-20T12:03:18.224Z,7.27
2019-03-20T12:05:47.707Z,9.83
2019-03-20T12:08:17.167Z,9.27
2019-03-20T12:10:46.721Z,23.03
2019-03-20T12:13:16.201Z,6.53
2019-03-20T12:15:45.738Z,11.40
2019-03-20T12:18:15.189Z,13.97
2019-03-20T12:20:44.708Z,13.37
2019-03-20T12:23:14.119Z,15.30
2019-03-20T12:25:43.662Z,6.37
2019-03-20T12:28:13.173Z,18.93
2019-03-20T12:30:42.729Z,11.90
2019-03-20T12:33:21.406Z,4.47
2019-03-20T12:35:50.918Z,19.13
2019-03-20T12:38:20.417Z,6.93
2019-03-20T12:40:49.893Z,12.80
2019-03-20T12:43:19.299Z,7.60
2019-03-20T12:45:48.788Z,8.73
2019-03-20T12:48:18.251Z,11.67
2019-03-20T12:50:47.783Z,7.73
2019-03-20T12:53:17.410Z,6.13
2019-03-20T12:55:46.832Z,6.63
2019-03-20T12:58:16.305Z,7.77
2019-03-20T13:05:43.651Z,24.23
2019-03-20T13:08:13.189Z,4.50
2019-03-20T13:10:42.719Z,4.60
2019-03-20T13:13:12.543Z,6.63
2019-03-20T13:15:42.011Z,5.17
2019-03-20T13:18:11.486Z,5.73
2019-03-20T13:20:40.999Z,7.13
2019-03-20T13:23:13.285Z,4.23
2019-03-20T13:25:42.821Z,3.83
2019-03-20T13:28:12.242Z,6.73
2019-03-20T13:30:44.888Z,4.77
2019-03-20T13:33:24.955Z,5.27
2019-03-20T13:35:45.547Z,4.50
2019-03-20T13:38:15.062Z,11.13
2019-03-20T13:40:44.602Z,6.40
2019-03-20T13:43:14.204Z,4.20
2019-03-20T13:45:44.002Z,4.97
2019-03-20T13:48:14.425Z,5.40
2019-03-20T13:50:43.757Z,6.03
2019-03-20T13:53:15.320Z,4.80
2019-03-20T13:55:44.617Z,5.53
2019-03-20T13:58:14.213Z,10.20
2019-03-20T14:00:43.794Z,7.50
2019-03-20T14:03:13.424Z,4.87
2019-03-20T14:05:42.934Z,11.70
2019-03-20T14:08:12.487Z,5.33
2019-03-20T14:10:50.081Z,6.20
2019-03-20T14:13:13.305Z,6.97
2019-03-20T14:15:42.722Z,7.00
2019-03-20T14:18:12.226Z,7.60
2019-03-20T14:20:41.763Z,8.23
2019-03-20T14:23:11.146Z,6.47
2019-03-20T14:25:40.533Z,7.40
2019-03-20T14:28:09.997Z,15.43
2019-03-20T14:30:39.478Z,9.70
2019-03-20T14:33:08.917Z,14.30
2019-03-20T14:35:38.521Z,10.20
2019-03-20T14:38:07.951Z,18.10
2019-03-20T14:40:37.992Z,12.30
2019-03-20T14:43:07.582Z,10.47
2019-03-20T14:45:37.080Z,8.60
2019-03-20T14:48:06.736Z,12.00
2019-03-20T14:50:36.705Z,7.30
2019-03-20T14:53:06.316Z,8.60
2019-03-20T14:55:35.774Z,8.87
2019-03-20T14:58:05.550Z,8.37
2019-03-20T15:00:35.243Z,9.97
2019-03-20T15:03:04.880Z,10.23
2019-03-20T15:05:34.369Z,9.13
2019-03-20T15:08:04.095Z,15.23
2019-03-20T15:10:33.532Z,19.13
2019-03-20T15:13:03.117Z,11.67
2019-03-20T15:15:38.749Z,12.33
2019-03-20T15:18:08.207Z,15.97
2019-03-20T15:20:37.665Z,8.47
2019-03-20T15:23:07.261Z,15.33
2019-03-20T15:25:36.981Z,6.87
2019-03-20T15:28:06.485Z,12.30
2019-03-20T15:30:36.042Z,14.50
2019-03-20T15:33:05.646Z,12.47
2019-03-20T15:35:35.206Z,8.97
2019-03-20T15:38:04.606Z,18.00
2019-03-20T15:40:34.067Z,11.80
2019-03-20T15:43:03.544Z,9.57
2019-03-20T15:45:33.043Z,9.37
2019-03-20T15:48:02.615Z,16.23
2019-03-20T15:50:32.024Z,7.57
2019-03-20T15:53:01.664Z,14.60
2019-03-20T15:55:31.779Z,9.60
2019-03-20T15:58:01.583Z,7.03
2019-03-20T16:00:31.308Z,8.33
2019-03-20T16:03:03.814Z,10.20
2019-03-20T16:05:33.535Z,33.57
2019-03-20T16:08:03.037Z,10.33
2019-03-20T16:10:32.862Z,18.83
2019-03-20T16:13:02.656Z,11.37
2019-03-20T16:15:32.981Z,8.63
2019-03-20T16:18:02.916Z,10.17
2019-03-20T16:20:32.627Z,11.13
2019-03-20T16:23:02.902Z,6.47
2019-03-20T16:25:32.682Z,8.97
2019-03-20T16:28:02.494Z,12.73
2019-03-20T16:30:32.618Z,9.67
2019-03-20T16:33:02.601Z,12.10
2019-03-20T16:35:32.571Z,32.17
2019-03-20T16:38:02.458Z,16.10
2019-03-20T16:40:32.263Z,13.10
2019-03-20T16:43:02.025Z,11.83
2019-03-20T16:45:31.994Z,10.23
2019-03-20T16:48:01.990Z,15.73
2019-03-20T16:50:33.119Z,16.27
2019-03-20T16:53:03.111Z,13.20
2019-03-20T16:55:32.918Z,25.47
2019-03-20T16:58:02.662Z,17.00
2019-03-20T17:00:32.480Z,11.17
2019-03-20T17:03:02.302Z,13.43
2019-03-20T17:05:32.248Z,8.87
2019-03-20T17:08:02.204Z,9.37
2019-03-20T17:10:37.986Z,9.00
2019-03-20T17:13:07.985Z,14.50
2019-03-20T17:15:37.967Z,9.40
2019-03-20T17:18:08.137Z,14.40
2019-03-20T17:20:38.173Z,9.73
2019-03-20T17:23:08.183Z,12.57
2019-03-20T17:25:38.212Z,19.53
2019-03-20T17:28:08.227Z,15.70
2019-03-20T17:30:38.366Z,17.97
2019-03-20T17:33:08.211Z,12.37
2019-03-20T17:35:38.239Z,10.57
2019-03-20T17:38:08.311Z,14.50
2019-03-20T17:40:38.311Z,42.13
2019-03-20T17:43:08.141Z,16.33
2019-03-20T17:45:40.143Z,15.47
2019-03-20T17:48:10.078Z,13.30
2019-03-20T17:50:39.784Z,14.33
2019-03-20T17:53:09.735Z,26.23
2019-03-20T17:55:39.702Z,16.70
2019-03-20T17:58:09.442Z,14.67
2019-03-20T18:00:41.796Z,12.90
2019-03-20T18:03:11.910Z,13.70
2019-03-20T18:05:41.866Z,32.43
2019-03-20T18:08:11.924Z,20.20
2019-03-20T18:10:44.664Z,19.60
2019-03-20T18:13:14.623Z,14.13
2019-03-20T18:15:45.657Z,16.23
2019-03-20T18:18:15.615Z,23.27
2019-03-20T18:20:45.581Z,18.20
2019-03-20T18:23:15.431Z,13.10
2019-03-20T18:25:45.363Z,16.43
2019-03-20T18:28:15.361Z,18.10
2019-03-20T18:30:45.284Z,25.50
2019-03-20T18:33:15.518Z,25.43
2019-03-20T18:35:45.458Z,15.63
2019-03-20T18:38:15.358Z,22.13
2019-03-20T18:40:45.409Z,25.20
2019-03-20T18:43:15.354Z,30.60
2019-03-20T18:45:45.322Z,20.07
2019-03-20T18:48:15.359Z,27.83
2019-03-20T18:50:45.414Z,20.47
2019-03-20T18:53:15.396Z,28.80
2019-03-20T18:55:45.468Z,20.83
2019-03-20T18:58:16.026Z,30.87
2019-03-20T19:00:47.291Z,28.47
2019-03-20T19:03:17.380Z,23.93
2019-03-20T19:05:59.792Z,23.00
2019-03-20T19:08:29.935Z,23.87
2019-03-20T19:10:59.832Z,20.27
2019-03-20T19:13:29.988Z,25.30
2019-03-20T19:16:00.024Z,32.63
2019-03-20T19:18:29.843Z,28.73
2019-03-20T19:20:59.878Z,30.77
2019-03-20T19:23:29.901Z,19.83
2019-03-20T19:25:59.766Z,19.20
2019-03-20T19:28:29.718Z,18.93
2019-03-20T19:30:59.776Z,26.50
2019-03-20T19:33:29.868Z,23.70
2019-03-20T19:35:59.925Z,36.13
2019-03-20T19:38:34.806Z,29.23
2019-03-20T19:41:01.622Z,31.03
2019-03-20T19:43:31.465Z,24.60
2019-03-20T19:46:02.455Z,30.10
2019-03-20T19:48:32.515Z,32.20
2019-03-20T19:51:02.590Z,26.37
2019-03-20T19:53:32.569Z,23.33
2019-03-20T19:56:02.906Z,21.70
2019-03-20T19:58:32.753Z,32.37
2019-03-20T20:01:02.823Z,21.80
2019-03-20T20:03:32.779Z,20.80
2019-03-20T20:06:02.537Z,24.93
2019-03-20T20:08:32.664Z,31.77
2019-03-20T20:11:02.642Z,22.83
2019-03-20T20:13:32.638Z,29.43
2019-03-20T20:16:02.410Z,32.03
2019-03-20T20:18:32.237Z,28.50
2019-03-20T20:21:02.062Z,34.30
2019-03-20T20:23:32.212Z,28.97
2019-03-20T20:26:02.248Z,34.83
2019-03-20T20:28:32.112Z,26.77
2019-03-20T20:31:01.944Z,25.53
2019-03-20T20:33:31.798Z,39.43
2019-03-20T20:36:01.859Z,35.17
2019-03-20T20:38:31.733Z,35.37
2019-03-20T20:41:02.218Z,37.60
2019-03-20T20:43:32.291Z,32.30
2019-03-20T20:46:02.373Z,38.57
2019-03-20T20:48:32.298Z,34.00
2019-03-20T20:51:02.211Z,39.23
2019-03-20T20:53:32.144Z,35.30
2019-03-20T20:56:02.056Z,29.80
2019-03-20T20:58:32.142Z,36.43
2019-03-20T21:01:02.382Z,27.70
2019-03-20T21:03:32.182Z,37.40
2019-03-20T21:06:01.931Z,35.93
2019-03-20T21:08:31.813Z,43.80
2019-03-20T21:11:01.616Z,32.03
2019-03-20T21:13:31.645Z,38.20
2019-03-20T21:16:03.499Z,33.83
2019-03-20T21:19:17.967Z,32.73
2019-03-20T21:22:21.588Z,41.90
2019-03-20T21:24:54.206Z,43.00
2019-03-20T21:28:02.638Z,46.33
2019-03-20T21:31:22.323Z,26.67
2019-03-20T21:34:28.589Z,43.77
2019-03-20T21:37:29.270Z,32.03
2019-03-20T21:39:59.532Z,46.43
2019-03-20T21:43:07.171Z,33.57
2019-03-20T21:46:09.105Z,33.93
2019-03-20T21:48:39.254Z,38.00
2019-03-20T21:51:16.270Z,29.43
2019-03-20T21:54:39.630Z,36.40
2019-03-20T21:57:21.816Z,39.60
2019-03-20T22:00:41.588Z,44.70
2019-03-20T22:03:11.690Z,36.90
2019-03-20T22:06:33.116Z,38.17
2019-03-20T22:09:37.145Z,42.47
2019-03-20T22:12:26.581Z,38.80
2019-03-20T22:15:01.968Z,55.43
2019-03-20T22:18:14.614Z,33.87
2019-03-20T22:21:06.349Z,59.17
2019-03-20T22:24:17.949Z,29.80
2019-03-20T22:27:22.720Z,47.03
2019-03-20T22:29:52.687Z,37.90
2019-03-20T22:33:30.625Z,47.73
2019-03-20T22:36:19.285Z,42.57
2019-03-20T22:39:40.232Z,42.80
2019-03-20T22:42:39.906Z,44.40
2019-03-20T22:45:35.157Z,44.97
2019-03-20T22:48:49.003Z,41.93
2019-03-20T22:51:52.268Z,42.67
2019-03-20T22:55:14.165Z,48.23
2019-03-20T22:58:23.287Z,41.23
2019-03-20T23:00:54.394Z,61.63
2019-03-20T23:03:37.597Z,42.77
2019-03-20T23:06:07.797Z,47.47
2019-03-20T23:08:37.781Z,44.67
2019-03-20T23:11:08.241Z,51.53
2019-03-20T23:13:41.811Z,51.83
2019-03-20T23:16:11.390Z,46.87
2019-03-20T23:18:41.435Z,46.80
2019-03-20T23:21:11.455Z,45.83
2019-03-20T23:23:42.262Z,50.63
2019-03-20T23:26:12.413Z,48.97
2019-03-20T23:28:42.653Z,44.37
2019-03-20T23:31:12.614Z,67.17
2019-03-20T23:33:42.578Z,43.80
2019-03-20T23:36:12.664Z,42.43
2019-03-20T23:38:42.587Z,51.77
2019-03-20T23:41:12.541Z,48.90
2019-03-20T23:43:52.395Z,45.03
2019-03-20T23:46:14.461Z,45.57
2019-03-20T23:49:03.375Z,39.23
2019-03-20T23:51:33.660Z,54.80
2019-03-20T23:54:03.858Z,40.50
2019-03-20T23:56:36.193Z,58.10
2019-03-20T23:59:07.550Z,50.97
